createdAt,value
2023-06-04T00:01:35.525Z,2.00
2023-06-04T00:04:28.641Z,2.70
2023-06-04T00:07:20.887Z,1.60
2023-06-04T00:10:13.443Z,2.20
2023-06-04T00:13:05.597Z,3.80
2023-06-04T00:15:57.741Z,2.50
2023-06-04T00:18:49.893Z,5.40
2023-06-04T00:21:42.055Z,2.70
2023-06-04T00:24:34.209Z,2.30
2023-06-04T00:27:26.349Z,2.50
2023-06-04T00:30:18.746Z,3.90
2023-06-04T00:33:11.038Z,3.00
2023-06-04T00:36:03.465Z,3.10
2023-06-04T00:38:55.622Z,3.40
2023-06-04T00:41:48.030Z,3.10
2023-06-04T00:45:01.022Z,2.00
2023-06-04T00:47:53.137Z,1.60
2023-06-04T00:50:46.106Z,4.20
2023-06-04T00:53:38.331Z,1.80
2023-06-04T00:56:31.083Z,2.80
2023-06-04T00:59:23.517Z,3.00
2023-06-04T01:02:21.112Z,2.20
2023-06-04T01:05:18.830Z,2.80
2023-06-04T01:08:11.215Z,2.50
2023-06-04T01:11:03.286Z,3.50
2023-06-04T01:13:55.415Z,1.50
2023-06-04T01:16:51.897Z,2.10
2023-06-04T01:20:07.020Z,3.30
2023-06-04T01:22:50.610Z,3.20
2023-06-04T01:25:45.074Z,3.10
2023-06-04T01:28:38.373Z,5.20
2023-06-04T01:31:34.123Z,2.90
2023-06-04T01:34:26.493Z,6.10
2023-06-04T01:37:19.211Z,2.60
2023-06-04T01:40:12.559Z,5.00
2023-06-04T01:43:04.954Z,2.80
2023-06-04T01:45:57.716Z,4.50
2023-06-04T01:48:50.030Z,5.10
2023-06-04T01:51:42.134Z,3.20
2023-06-04T01:54:34.982Z,4.00
2023-06-04T01:57:27.600Z,4.20
2023-06-04T02:00:20.443Z,5.10
2023-06-04T02:03:13.818Z,2.70
2023-06-04T02:06:08.563Z,6.20
2023-06-04T02:09:01.700Z,5.40
2023-06-04T02:11:53.880Z,6.80
2023-06-04T02:14:48.020Z,6.40
2023-06-04T02:17:41.293Z,6.90
2023-06-04T02:20:33.561Z,6.10
2023-06-04T02:23:25.862Z,6.00
2023-06-04T02:26:18.417Z,7.60
2023-06-04T02:29:10.701Z,5.20
2023-06-04T02:32:02.937Z,7.20
2023-06-04T02:34:56.562Z,5.70
2023-06-04T02:37:48.684Z,6.00
2023-06-04T02:40:41.015Z,6.00
2023-06-04T02:43:33.162Z,4.30
2023-06-04T02:46:25.424Z,4.00
2023-06-04T02:49:17.601Z,6.40
2023-06-04T02:51:58.202Z,5.60
2023-06-04T02:54:50.365Z,7.70
2023-06-04T02:57:44.141Z,6.80
2023-06-04T03:00:36.729Z,4.60
2023-06-04T03:03:28.978Z,8.30
2023-06-04T03:06:22.385Z,5.80
2023-06-04T03:09:14.846Z,5.00
2023-06-04T03:11:55.656Z,5.30
2023-06-04T03:14:47.811Z,8.30
2023-06-04T03:17:40.322Z,4.80
2023-06-04T03:20:47.818Z,7.00
2023-06-04T03:23:40.355Z,6.50
2023-06-04T03:26:32.426Z,5.50
2023-06-04T03:29:14.391Z,4.90
2023-06-04T03:32:07.942Z,3.90
2023-06-04T03:35:00.155Z,5.30
2023-06-04T03:37:52.383Z,8.30
2023-06-04T03:40:44.529Z,7.00
2023-06-04T03:43:36.526Z,5.00
2023-06-04T03:46:32.674Z,6.10
2023-06-04T03:49:24.865Z,5.30
2023-06-04T03:52:17.364Z,4.90
2023-06-04T03:55:07.246Z,5.30
2023-06-04T03:57:59.395Z,4.30
2023-06-04T04:00:51.506Z,4.40
2023-06-04T04:03:44.203Z,3.00
2023-06-04T04:06:36.560Z,3.70
2023-06-04T04:09:17.321Z,3.50
2023-06-04T04:12:10.606Z,6.20
2023-06-04T04:15:03.179Z,3.30
2023-06-04T04:17:55.268Z,3.50
2023-06-04T04:20:47.994Z,6.00
2023-06-04T04:23:42.112Z,5.40
2023-06-04T04:26:35.274Z,3.70
2023-06-04T04:29:29.029Z,4.20
2023-06-04T04:32:21.328Z,5.20
2023-06-04T04:35:13.738Z,6.10
2023-06-04T04:38:05.901Z,4.50
2023-06-04T04:40:58.517Z,5.10
2023-06-04T04:43:50.691Z,4.00
2023-06-04T04:46:27.901Z,3.40
2023-06-04T04:49:20.074Z,6.10
2023-06-04T04:52:12.200Z,4.80
2023-06-04T04:55:04.925Z,4.40
2023-06-04T04:57:57.083Z,4.20
2023-06-04T05:00:49.805Z,3.70
2023-06-04T05:03:41.948Z,2.60
2023-06-04T05:06:34.134Z,1.70
2023-06-04T05:09:26.229Z,3.90
2023-06-04T05:12:18.600Z,2.90
2023-06-04T05:15:13.709Z,3.30
2023-06-04T05:18:06.037Z,2.30
2023-06-04T05:20:58.957Z,2.40
2023-06-04T05:23:51.421Z,2.30
2023-06-04T05:26:43.771Z,2.30
2023-06-04T05:29:36.039Z,6.30
2023-06-04T05:32:29.579Z,3.90
2023-06-04T05:35:22.144Z,1.80
2023-06-04T05:38:18.260Z,1.40
2023-06-04T05:41:00.611Z,1.70
2023-06-04T05:43:52.992Z,5.10
2023-06-04T05:46:45.106Z,2.70
2023-06-04T05:49:38.314Z,3.00
2023-06-04T05:52:30.375Z,2.40
2023-06-04T05:55:22.853Z,3.10
2023-06-04T05:58:03.803Z,1.50
2023-06-04T06:00:56.123Z,2.10
2023-06-04T06:03:48.634Z,1.80
2023-06-04T06:06:40.922Z,1.40
2023-06-04T06:09:33.036Z,2.30
2023-06-04T06:12:25.207Z,3.20
2023-06-04T06:15:17.939Z,3.50
2023-06-04T06:18:10.190Z,2.90
2023-06-04T06:21:02.418Z,3.20
2023-06-04T06:23:49.768Z,3.90
2023-06-04T06:26:25.340Z,4.30
2023-06-04T06:29:17.539Z,3.50
2023-06-04T06:32:09.764Z,4.50
2023-06-04T06:35:01.965Z,5.10
2023-06-04T06:37:54.099Z,2.10
2023-06-04T06:40:46.456Z,3.90
2023-06-04T06:43:38.819Z,3.20
2023-06-04T06:46:31.157Z,4.60
2023-06-04T06:49:23.370Z,4.40
2023-06-04T06:52:15.463Z,2.30
2023-06-04T06:55:08.529Z,3.40
2023-06-04T06:58:00.685Z,5.00
2023-06-04T07:00:53.048Z,2.70
2023-06-04T07:03:41.722Z,4.00
2023-06-04T07:06:34.334Z,3.10
2023-06-04T07:09:23.642Z,4.90
2023-06-04T07:12:15.767Z,2.90
2023-06-04T07:14:50.557Z,3.50
2023-06-04T07:17:43.036Z,2.80
2023-06-04T07:20:24.100Z,2.60
2023-06-04T07:23:16.460Z,3.40
2023-06-04T07:25:48.517Z,3.10
2023-06-04T07:28:26.164Z,3.20
2023-06-04T07:31:16.705Z,3.50
2023-06-04T07:34:08.846Z,2.60
2023-06-04T07:36:58.293Z,2.90
2023-06-04T07:39:50.562Z,2.20
2023-06-04T07:42:44.071Z,2.90
2023-06-04T07:45:19.071Z,3.40
2023-06-04T07:48:13.038Z,4.40
2023-06-04T07:51:06.527Z,4.70
2023-06-04T07:53:39.014Z,2.20
2023-06-04T07:56:21.947Z,1.80
2023-06-04T07:59:14.245Z,3.20
2023-06-04T08:02:07.284Z,3.00
2023-06-04T08:04:59.538Z,3.50
2023-06-04T08:07:45.106Z,2.80
2023-06-04T08:10:37.798Z,3.50
2023-06-04T08:13:29.970Z,2.40
2023-06-04T08:16:22.110Z,2.10
2023-06-04T08:19:14.782Z,4.70
2023-06-04T08:22:07.638Z,1.90
2023-06-04T08:24:59.843Z,2.90
2023-06-04T08:27:52.279Z,1.90
2023-06-04T08:30:44.479Z,2.60
2023-06-04T08:33:36.677Z,1.80
2023-06-04T08:36:28.944Z,2.30
2023-06-04T08:39:06.580Z,3.90
2023-06-04T08:42:03.872Z,2.20
2023-06-04T08:44:56.430Z,4.80
2023-06-04T08:47:39.343Z,3.80
2023-06-04T08:50:32.876Z,2.60
2023-06-04T08:53:07.601Z,3.20
2023-06-04T08:55:52.996Z,2.50
2023-06-04T08:58:46.008Z,3.40
2023-06-04T09:01:39.357Z,3.30
2023-06-04T09:04:32.918Z,4.50
2023-06-04T09:07:26.159Z,2.60
2023-06-04T09:10:24.053Z,1.90
2023-06-04T09:13:17.651Z,1.60
2023-06-04T09:16:09.893Z,3.20
2023-06-04T09:19:05.251Z,2.70
2023-06-04T09:21:58.953Z,2.30
2023-06-04T09:24:51.563Z,2.70
2023-06-04T09:27:43.965Z,2.50
2023-06-04T09:30:36.569Z,1.50
2023-06-04T09:33:29.739Z,3.40
2023-06-04T09:36:22.724Z,2.90
2023-06-04T09:39:22.042Z,2.50
2023-06-04T09:42:14.187Z,2.20
2023-06-04T09:45:07.930Z,2.30
2023-06-04T09:48:00.309Z,2.20
2023-06-04T09:50:52.508Z,3.30
2023-06-04T09:53:55.004Z,2.20
2023-06-04T09:56:47.129Z,3.80
2023-06-04T09:59:45.328Z,3.40
2023-06-04T10:02:34.207Z,1.80
2023-06-04T10:05:28.559Z,2.90
2023-06-04T10:08:23.844Z,3.20
2023-06-04T10:11:19.571Z,3.00
2023-06-04T10:14:02.286Z,1.60
2023-06-04T10:16:56.290Z,2.40
2023-06-04T10:19:52.923Z,2.40
2023-06-04T10:22:46.132Z,1.50
2023-06-04T10:25:39.264Z,2.00
2023-06-04T10:28:31.664Z,1.80
2023-06-04T10:34:05.144Z,3.60
2023-06-04T10:36:57.534Z,2.80
2023-06-04T10:39:54.999Z,2.00
2023-06-04T10:42:47.244Z,3.70
2023-06-04T10:45:40.083Z,3.20
2023-06-04T10:48:32.386Z,5.10
2023-06-04T10:51:35.231Z,3.00
2023-06-04T10:54:27.900Z,2.60
2023-06-04T10:57:21.374Z,3.00
2023-06-04T11:00:15.635Z,3.70
2023-06-04T11:03:10.039Z,4.70
2023-06-04T11:06:02.274Z,4.10
2023-06-04T11:09:06.363Z,4.00
2023-06-04T11:12:00.245Z,2.60
2023-06-04T11:14:59.532Z,1.90
2023-06-04T11:17:56.588Z,2.30
2023-06-04T11:20:51.118Z,2.50
2023-06-04T11:23:44.478Z,5.30
2023-06-04T11:26:40.732Z,2.80
2023-06-04T11:29:36.138Z,4.90
2023-06-04T11:32:28.544Z,2.40
2023-06-04T11:35:21.008Z,3.10
2023-06-04T11:38:13.443Z,2.70
2023-06-04T11:41:07.234Z,2.00
2023-06-04T11:43:51.223Z,2.60
2023-06-04T11:46:45.548Z,2.40
2023-06-04T11:49:38.614Z,3.00
2023-06-04T11:52:31.316Z,4.30
2023-06-04T11:55:24.222Z,2.30
2023-06-04T11:58:16.709Z,2.60
2023-06-04T12:00:57.080Z,2.90
2023-06-04T12:03:49.178Z,3.30
2023-06-04T12:06:42.518Z,1.90
2023-06-04T12:09:35.983Z,2.80
2023-06-04T12:12:28.130Z,2.90
2023-06-04T12:15:24.570Z,1.80
2023-06-04T12:18:29.408Z,2.20
2023-06-04T12:21:28.674Z,3.40
2023-06-04T12:24:20.768Z,2.80
2023-06-04T12:27:13.258Z,3.90
2023-06-04T12:30:08.526Z,2.60
2023-06-04T12:33:00.819Z,3.20
2023-06-04T12:35:52.996Z,4.10
2023-06-04T12:38:47.166Z,2.30
2023-06-04T12:41:46.608Z,1.90
2023-06-04T12:44:38.921Z,2.50
2023-06-04T12:47:13.639Z,2.40
2023-06-04T12:49:49.233Z,2.00
2023-06-04T12:52:42.053Z,3.00
2023-06-04T12:55:19.511Z,2.60
2023-06-04T12:58:11.661Z,2.60
2023-06-04T13:00:46.596Z,2.00
2023-06-04T13:03:40.181Z,2.70
2023-06-04T13:06:32.531Z,2.90
2023-06-04T13:09:24.940Z,2.90
2023-06-04T13:12:17.158Z,4.00
2023-06-04T13:15:10.904Z,3.40
2023-06-04T13:18:04.196Z,2.20
2023-06-04T13:20:56.475Z,2.10
2023-06-04T13:23:50.277Z,4.00
2023-06-04T13:26:43.513Z,2.50
2023-06-04T13:29:35.872Z,2.20
2023-06-04T13:32:28.038Z,1.70
2023-06-04T13:35:10.497Z,2.70
2023-06-04T13:37:51.759Z,1.90
2023-06-04T13:40:44.119Z,2.90
2023-06-04T13:43:36.268Z,4.10
2023-06-04T13:46:13.577Z,3.10
2023-06-04T13:49:06.706Z,3.40
2023-06-04T13:51:58.865Z,2.00
2023-06-04T13:54:52.371Z,2.90
2023-06-04T13:57:44.628Z,3.30
2023-06-04T14:00:37.345Z,2.70
2023-06-04T14:03:29.576Z,3.00
2023-06-04T14:06:21.794Z,4.80
2023-06-04T14:09:10.329Z,5.50
2023-06-04T14:11:51.324Z,3.60
2023-06-04T14:14:37.334Z,3.90
2023-06-04T14:17:29.567Z,3.40
2023-06-04T14:20:21.774Z,2.80
2023-06-04T14:23:14.085Z,3.20
2023-06-04T14:26:06.462Z,2.00
2023-06-04T14:28:58.634Z,2.60
2023-06-04T14:31:50.906Z,2.60
2023-06-04T14:34:39.328Z,4.10
2023-06-04T14:37:31.500Z,2.50
2023-06-04T14:40:23.649Z,2.30
2023-06-04T14:43:16.486Z,3.40
2023-06-04T14:46:09.256Z,2.60
2023-06-04T14:49:01.939Z,4.40
2023-06-04T14:51:54.144Z,3.00
2023-06-04T14:54:46.163Z,4.00
2023-06-04T14:57:38.454Z,3.80
2023-06-04T15:00:30.706Z,4.20
2023-06-04T15:03:23.005Z,3.40
2023-06-04T15:06:19.246Z,4.30
2023-06-04T15:09:12.359Z,2.70
2023-06-04T15:12:05.357Z,3.40
2023-06-04T15:14:57.581Z,4.70
2023-06-04T15:17:50.082Z,3.40
2023-06-04T15:20:26.014Z,2.00
2023-06-04T15:23:18.940Z,3.90
2023-06-04T15:26:11.253Z,2.50
2023-06-04T15:29:03.373Z,2.50
2023-06-04T15:31:47.258Z,2.30
2023-06-04T15:34:39.523Z,4.40
2023-06-04T15:37:31.864Z,2.60
2023-06-04T15:40:24.613Z,4.50
2023-06-04T15:43:17.066Z,3.10
2023-06-04T15:46:09.409Z,3.60
2023-06-04T15:49:06.836Z,3.10
2023-06-04T15:51:58.967Z,5.20
2023-06-04T15:54:51.090Z,4.60
2023-06-04T15:57:43.249Z,5.00
2023-06-04T16:00:35.527Z,4.60
2023-06-04T16:03:27.665Z,2.70
2023-06-04T16:06:20.066Z,2.70
2023-06-04T16:09:13.121Z,5.50
2023-06-04T16:12:06.361Z,4.10
2023-06-04T16:14:58.820Z,2.60
2023-06-04T16:17:51.185Z,3.60
2023-06-04T16:20:43.367Z,2.40
2023-06-04T16:23:35.623Z,2.90
2023-06-04T16:26:28.053Z,2.60
2023-06-04T16:29:20.567Z,3.00
2023-06-04T16:32:12.675Z,2.90
2023-06-04T16:35:05.161Z,4.50
2023-06-04T16:37:57.341Z,3.40
2023-06-04T16:40:49.455Z,3.20
2023-06-04T16:43:41.768Z,4.30
2023-06-04T16:46:33.951Z,2.80
2023-06-04T16:49:26.818Z,3.30
2023-06-04T16:52:19.314Z,2.70
2023-06-04T16:55:13.463Z,2.50
2023-06-04T16:58:05.898Z,4.40
2023-06-04T17:00:58.271Z,3.00
2023-06-04T17:03:52.570Z,2.90
2023-06-04T17:06:45.476Z,3.10
2023-06-04T17:09:37.979Z,2.50
2023-06-04T17:12:30.143Z,2.40
2023-06-04T17:15:22.823Z,3.10
2023-06-04T17:18:15.421Z,3.30
2023-06-04T17:21:07.790Z,3.30
2023-06-04T17:23:59.958Z,3.50
2023-06-04T17:26:52.545Z,4.00
2023-06-04T17:29:45.290Z,2.60
2023-06-04T17:32:37.517Z,4.10
2023-06-04T17:35:29.680Z,2.20
2023-06-04T17:38:23.364Z,2.60
2023-06-04T17:41:16.544Z,4.20
2023-06-04T17:44:08.995Z,3.80
2023-06-04T17:47:05.142Z,2.00
2023-06-04T17:49:57.480Z,2.10
2023-06-04T17:52:51.529Z,3.20
2023-06-04T17:55:43.962Z,3.00
2023-06-04T17:58:36.466Z,1.90
2023-06-04T18:01:28.956Z,2.30
2023-06-04T18:04:21.232Z,2.00
2023-06-04T18:07:14.643Z,3.70
2023-06-04T18:10:09.289Z,3.40
2023-06-04T18:13:01.778Z,3.50
2023-06-04T18:15:56.188Z,2.10
2023-06-04T18:18:48.902Z,2.10
2023-06-04T18:21:30.313Z,2.20
2023-06-04T18:24:23.384Z,3.30
2023-06-04T18:27:16.215Z,2.40
2023-06-04T18:30:10.381Z,3.30
2023-06-04T18:33:02.882Z,3.70
2023-06-04T18:35:55.090Z,1.70
2023-06-04T18:38:47.592Z,1.80
2023-06-04T18:41:40.648Z,2.60
2023-06-04T18:44:33.155Z,3.90
2023-06-04T18:47:27.758Z,1.90
2023-06-04T18:50:20.348Z,2.70
2023-06-04T18:53:13.211Z,4.40
2023-06-04T18:56:06.982Z,4.00
2023-06-04T18:58:59.570Z,4.10
2023-06-04T19:01:52.204Z,2.70
2023-06-04T19:04:46.331Z,3.50
2023-06-04T19:07:40.667Z,4.80
2023-06-04T19:10:33.334Z,3.60
2023-06-04T19:13:25.801Z,2.90
2023-06-04T19:16:19.554Z,4.10
2023-06-04T19:19:12.005Z,6.10
2023-06-04T19:24:58.887Z,5.50
2023-06-04T19:27:54.832Z,4.40
2023-06-04T19:30:47.864Z,4.50
2023-06-04T19:33:42.208Z,5.30
2023-06-04T19:36:34.761Z,4.00
2023-06-04T19:39:27.268Z,7.80
2023-06-04T19:42:19.503Z,5.10
2023-06-04T19:45:00.649Z,4.10
2023-06-04T19:47:53.397Z,5.40
2023-06-04T19:50:46.819Z,4.20
2023-06-04T19:53:41.173Z,5.40
2023-06-04T19:56:33.316Z,7.20
2023-06-04T19:59:25.978Z,4.60
2023-06-04T20:02:18.750Z,4.30
2023-06-04T20:05:13.568Z,3.50
2023-06-04T20:07:46.821Z,5.60
2023-06-04T20:10:39.388Z,4.10
2023-06-04T20:13:31.655Z,7.80
2023-06-04T20:16:24.003Z,6.70
2023-06-04T20:19:16.458Z,5.50
2023-06-04T20:22:10.030Z,7.00
2023-06-04T20:25:02.962Z,6.90
2023-06-04T20:27:55.220Z,5.40
2023-06-04T20:30:47.598Z,5.50
2023-06-04T20:33:40.759Z,6.10
2023-06-04T20:36:33.814Z,5.60
2023-06-04T20:39:08.595Z,4.70
2023-06-04T20:41:50.379Z,3.70
2023-06-04T20:44:42.647Z,4.60
2023-06-04T20:47:35.075Z,5.10
2023-06-04T20:50:27.369Z,4.00
2023-06-04T20:53:05.416Z,5.00
2023-06-04T20:55:57.673Z,5.70
2023-06-04T20:58:49.962Z,3.20
2023-06-04T21:01:42.486Z,5.80
2023-06-04T21:04:35.745Z,6.10
2023-06-04T21:07:24.245Z,4.80
2023-06-04T21:10:16.656Z,5.40
2023-06-04T21:13:08.780Z,5.00
2023-06-04T21:15:49.799Z,6.20
2023-06-04T21:18:42.001Z,4.90
2023-06-04T21:21:34.107Z,4.30
2023-06-04T21:24:26.258Z,5.60
2023-06-04T21:27:18.336Z,6.70
2023-06-04T21:30:12.115Z,4.30
2023-06-04T21:32:54.354Z,6.80
2023-06-04T21:35:46.638Z,8.80
2023-06-04T21:38:38.934Z,7.00
2023-06-04T21:41:31.322Z,6.30
2023-06-04T21:44:06.897Z,6.10
2023-06-04T21:46:59.613Z,5.70
2023-06-04T21:49:42.967Z,4.80
2023-06-04T21:52:35.081Z,6.80
2023-06-04T21:55:27.166Z,6.20
2023-06-04T21:58:20.880Z,5.70
2023-06-04T22:01:13.215Z,6.10
2023-06-04T22:04:05.628Z,5.50
2023-06-04T22:06:49.164Z,5.10
2023-06-04T22:09:41.341Z,6.10
2023-06-04T22:12:33.566Z,4.90
2023-06-04T22:15:25.852Z,5.40
2023-06-04T22:18:18.019Z,7.30
2023-06-04T22:21:10.365Z,8.30
2023-06-04T22:24:03.388Z,5.40
2023-06-04T22:26:55.655Z,5.10
2023-06-04T22:29:47.732Z,8.10
2023-06-04T22:32:39.883Z,4.80
2023-06-04T22:35:32.202Z,4.50
2023-06-04T22:38:24.845Z,3.90
2023-06-04T22:40:59.707Z,5.50
2023-06-04T22:43:52.033Z,5.00
2023-06-04T22:46:44.234Z,5.00
2023-06-04T22:49:36.386Z,6.30
2023-06-04T22:52:28.462Z,4.20
2023-06-04T22:55:20.658Z,5.20
2023-06-04T22:58:12.812Z,7.20
2023-06-04T23:01:05.299Z,4.70
2023-06-04T23:03:50.548Z,5.60
2023-06-04T23:06:42.736Z,5.40
2023-06-04T23:09:34.867Z,4.00
2023-06-04T23:12:27.105Z,5.10
2023-06-04T23:15:25.089Z,4.50
2023-06-04T23:18:17.266Z,4.70
2023-06-04T23:20:52.324Z,5.80
2023-06-04T23:23:44.526Z,5.60
2023-06-04T23:26:22.316Z,5.20
2023-06-04T23:29:14.695Z,4.60
2023-06-04T23:32:07.569Z,5.00
2023-06-04T23:34:59.775Z,4.80
2023-06-04T23:37:52.045Z,7.80
2023-06-04T23:40:44.275Z,4.50
2023-06-04T23:43:36.493Z,4.10
2023-06-04T23:46:28.729Z,4.80
2023-06-04T23:49:21.204Z,5.30
2023-06-04T23:52:13.691Z,4.40
2023-06-04T23:55:35.811Z,5.50
2023-06-04T23:58:28.014Z,5.10
